Time;durP1;ratioP1;P1;durP2;ratioP2;P2;SDS_P1;SDS_P2;PMS_P1;PMS_P2;Temp;Humidity;BMP_temperature;BMP_pressure;BME280_temperature;BME280_humidity;BME280_pressure;Samples;Min_cycle;Max_cycle;Signal;HPM_P1;HPM_P2
2021/05/23 00:01:05;;;;;;;1.45;0.80;;;15.20;58.20;;;;;;5086636;28;20255;-50
2021/05/23 00:03:30;;;;;;;2.63;1.10;;;15.10;58.50;;;;;;5086090;28;20055;-48
2021/05/23 00:05:56;;;;;;;2.53;1.08;;;15.20;58.60;;;;;;5087806;28;20316;-48
2021/05/23 00:08:21;;;;;;;3.28;0.93;;;15.20;58.60;;;;;;5086199;28;20239;-49
2021/05/23 00:10:57;;;;;;;2.45;0.90;;;15.20;58.40;;;;;;5085740;28;20263;-50
2021/05/23 00:13:29;;;;;;;1.25;0.68;;;15.20;58.40;;;;;;5086030;28;20344;-47
2021/05/23 00:15:56;;;;;;;2.22;0.88;;;15.10;58.50;;;;;;5086137;28;20127;-46
2021/05/23 00:18:22;;;;;;;2.38;1.02;;;15.10;58.30;;;;;;5086207;28;20036;-48
2021/05/23 00:20:47;;;;;;;1.73;0.80;;;15.10;58.50;;;;;;5087348;28;20052;-48
2021/05/23 00:23:13;;;;;;;1.63;0.82;;;15.10;58.80;;;;;;5085881;28;20376;-47
2021/05/23 00:25:39;;;;;;;1.55;0.90;;;15.10;58.50;;;;;;5086121;28;20060;-49
2021/05/23 00:28:05;;;;;;;3.47;1.20;;;15.10;58.60;;;;;;5086283;28;20033;-50
2021/05/23 00:30:31;;;;;;;2.45;0.90;;;15.10;57.70;;;;;;5085613;28;20246;-48
2021/05/23 00:32:56;;;;;;;4.15;1.00;;;15.10;57.90;;;;;;5087563;28;20032;-49
2021/05/23 00:35:22;;;;;;;2.83;1.08;;;15.10;57.90;;;;;;5085002;28;20104;-46
2021/05/23 00:37:49;;;;;;;1.80;0.70;;;15.10;58.20;;;;;;5085586;28;20149;-47
2021/05/23 00:40:14;;;;;;;2.45;0.70;;;15.10;58.40;;;;;;5085630;28;20040;-46
2021/05/23 00:42:40;;;;;;;2.70;0.95;;;15.10;58.70;;;;;;5084223;28;20044;-52
2021/05/23 00:45:07;;;;;;;3.75;1.00;;;15.00;58.80;;;;;;5087309;28;20263;-46
2021/05/23 00:47:32;;;;;;;2.33;0.90;;;15.00;59.10;;;;;;5085628;28;20256;-46
2021/05/23 00:49:58;;;;;;;2.95;0.80;;;15.00;59.80;;;;;;5085508;28;20143;-45
2021/05/23 00:52:23;;;;;;;2.75;0.90;;;14.90;60.20;;;;;;5084030;28;20024;-48
2021/05/23 00:54:49;;;;;;;2.67;0.80;;;14.90;60.30;;;;;;5084073;28;20033;-45
2021/05/23 00:57:15;;;;;;;1.98;0.90;;;14.90;60.70;;;;;;5087286;28;20051;-45
2021/05/23 00:59:41;;;;;;;1.63;0.73;;;14.90;61.00;;;;;;5084872;28;20036;-46
2021/05/23 01:02:06;;;;;;;2.03;1.17;;;14.90;61.70;;;;;;5082846;28;20082;-47
2021/05/23 01:04:34;;;;;;;2.40;0.70;;;14.80;62.20;;;;;;5084993;28;20039;-48
2021/05/23 01:07:00;;;;;;;2.85;0.90;;;14.80;62.50;;;;;;5084732;28;20032;-45
2021/05/23 01:09:25;;;;;;;3.25;1.48;;;14.80;62.30;;;;;;5085178;28;20339;-48
2021/05/23 01:11:51;;;;;;;5.63;0.90;;;14.80;62.60;;;;;;5086806;28;20247;-46
2021/05/23 01:14:38;;;;;;;1.05;0.70;;;14.80;62.80;;;;;;5085296;28;20141;-47
2021/05/23 01:17:03;;;;;;;2.80;0.82;;;14.80;63.40;;;;;;5077796;28;20247;-47
2021/05/23 01:19:32;;;;;;;2.00;0.90;;;14.80;63.80;;;;;;5083603;28;20033;-46
2021/05/23 01:22:24;;;;;;;5.28;0.98;;;14.80;63.60;;;;;;5084608;28;20094;-47
2021/05/23 01:25:04;;;;;;;1.67;0.88;;;14.80;63.40;;;;;;5046835;28;20104;-48
2021/05/23 01:27:35;;;;;;;1.80;0.90;;;14.80;64.10;;;;;;5083558;28;20029;-47
2021/05/23 01:30:06;;;;;;;2.75;1.00;;;14.70;63.90;;;;;;5086787;28;20020;-48
2021/05/23 01:32:32;;;;;;;2.70;0.95;;;14.70;63.60;;;;;;5085008;28;20040;-46
2021/05/23 01:34:59;;;;;;;2.35;0.70;;;14.70;64.20;;;;;;5083336;28;20040;-46
2021/05/23 01:37:24;;;;;;;2.78;0.95;;;14.60;64.10;;;;;;5084430;28;20339;-45
2021/05/23 01:39:50;;;;;;;1.65;0.70;;;14.60;64.30;;;;;;5084395;28;20055;-45
2021/05/23 01:42:15;;;;;;;3.55;1.13;;;14.60;64.40;;;;;;5085897;28;20033;-45
2021/05/23 01:44:41;;;;;;;1.65;0.80;;;14.50;64.40;;;;;;5083606;28;20216;-46
2021/05/23 01:47:06;;;;;;;1.48;0.90;;;14.50;64.90;;;;;;5083348;28;20033;-45
2021/05/23 01:49:32;;;;;;;1.77;1.00;;;14.50;64.80;;;;;;5083474;28;20224;-46
2021/05/23 01:51:57;;;;;;;1.67;0.90;;;14.50;64.60;;;;;;5083230;28;20320;-45
2021/05/23 01:54:23;;;;;;;2.17;1.10;;;14.50;64.90;;;;;;5084290;28;20016;-45
2021/05/23 01:56:48;;;;;;;1.67;1.13;;;14.40;65.20;;;;;;5085728;28;20089;-47
2021/05/23 01:59:14;;;;;;;7.35;1.10;;;14.40;65.20;;;;;;5084328;28;20040;-47
2021/05/23 02:01:39;;;;;;;2.08;0.90;;;14.40;65.40;;;;;;5084475;28;20043;-46
2021/05/23 02:04:05;;;;;;;2.05;0.70;;;14.40;65.70;;;;;;5084352;28;20055;-47
2021/05/23 02:06:31;;;;;;;1.35;0.85;;;14.40;65.70;;;;;;5082758;28;20078;-47
2021/05/23 02:08:56;;;;;;;1.38;0.90;;;14.40;65.80;;;;;;5085468;28;20078;-46
2021/05/23 02:11:22;;;;;;;2.05;0.88;;;14.40;65.80;;;;;;5083185;28;20392;-46
2021/05/23 02:13:51;;;;;;;3.83;0.90;;;14.40;65.70;;;;;;5083886;28;20059;-49
2021/05/23 02:16:18;;;;;;;2.50;1.05;;;14.40;66.30;;;;;;5083707;28;20059;-49
2021/05/23 02:18:44;;;;;;;1.90;1.00;;;14.30;66.30;;;;;;5083689;28;20025;-46
2021/05/23 02:21:10;;;;;;;4.82;0.93;;;14.40;66.40;;;;;;5085305;28;20047;-46
2021/05/23 02:23:35;;;;;;;3.72;0.82;;;14.40;66.30;;;;;;5083811;28;20040;-47
2021/05/23 02:26:01;;;;;;;6.60;1.17;;;14.30;66.10;;;;;;5083539;28;20032;-46
2021/05/23 02:28:26;;;;;;;3.15;1.00;;;14.40;66.40;;;;;;5083883;28;20082;-47
2021/05/23 02:30:54;;;;;;;1.02;0.70;;;14.30;66.40;;;;;;5083330;28;20040;-46
2021/05/23 02:33:20;;;;;;;2.85;0.88;;;14.30;66.40;;;;;;5083473;28;20113;-47
2021/05/23 02:35:48;;;;;;;2.53;1.10;;;14.30;66.40;;;;;;5085148;28;20055;-46
2021/05/23 02:38:14;;;;;;;1.65;0.80;;;14.30;66.50;;;;;;5083901;28;20040;-48
2021/05/23 02:40:40;;;;;;;4.38;1.00;;;14.30;66.50;;;;;;5083486;28;20050;-47
2021/05/23 02:43:06;;;;;;;2.50;0.90;;;14.30;66.50;;;;;;5082481;28;20251;-49
2021/05/23 02:45:34;;;;;;;2.85;1.10;;;14.20;66.50;;;;;;5083039;28;20044;-46
2021/05/23 02:48:00;;;;;;;1.50;0.82;;;14.20;66.50;;;;;;5084978;28;20063;-46
2021/05/23 02:50:27;;;;;;;3.85;1.15;;;14.10;66.70;;;;;;5083538;28;20044;-45
2021/05/23 02:52:53;;;;;;;2.22;0.82;;;14.20;66.60;;;;;;5083285;28;20245;-47
2021/05/23 02:55:19;;;;;;;2.65;0.90;;;14.10;66.90;;;;;;5082937;28;20075;-45
2021/05/23 02:57:44;;;;;;;1.67;0.77;;;14.20;67.10;;;;;;5082903;28;20033;-45
2021/05/23 03:00:12;;;;;;;2.55;1.00;;;14.10;67.10;;;;;;5083965;28;20231;-46
2021/05/23 03:02:38;;;;;;;1.80;0.90;;;14.10;67.30;;;;;;5083149;28;20091;-48
2021/05/23 03:05:04;;;;;;;3.33;1.60;;;14.00;67.60;;;;;;5083219;28;20062;-50
2021/05/23 03:07:32;;;;;;;1.95;0.95;;;13.90;67.90;;;;;;5083196;28;20082;-49
2021/05/23 03:09:58;;;;;;;2.47;0.93;;;13.90;67.80;;;;;;5082666;28;20032;-47
2021/05/23 03:12:23;;;;;;;2.47;0.82;;;13.90;67.50;;;;;;5082982;28;20032;-46
2021/05/23 03:14:49;;;;;;;2.50;1.10;;;13.90;67.40;;;;;;5084295;28;20070;-47
2021/05/23 03:17:14;;;;;;;2.25;1.15;;;13.90;67.30;;;;;;5082807;28;20040;-49
2021/05/23 03:19:40;;;;;;;3.22;1.05;;;13.80;66.90;;;;;;5082580;28;20043;-46
2021/05/23 03:22:06;;;;;;;2.53;1.10;;;13.80;66.60;;;;;;5082339;28;20063;-46
2021/05/23 03:24:32;;;;;;;3.05;1.15;;;13.80;66.40;;;;;;5082762;28;20040;-46
2021/05/23 03:26:57;;;;;;;4.85;1.23;;;13.80;66.00;;;;;;5083910;28;20017;-45
2021/05/23 03:29:23;;;;;;;2.10;0.90;;;13.70;65.90;;;;;;5081634;28;20036;-44
2021/05/23 03:31:48;;;;;;;3.28;1.00;;;13.70;66.00;;;;;;5082556;28;20028;-46
2021/05/23 03:34:14;;;;;;;3.10;1.08;;;13.60;65.60;;;;;;5082417;28;20032;-46
2021/05/23 03:36:40;;;;;;;3.55;1.30;;;13.60;65.60;;;;;;5082529;28;20036;-44
2021/05/23 03:39:05;;;;;;;4.45;1.17;;;13.50;65.90;;;;;;5084317;28;20243;-44
2021/05/23 03:41:31;;;;;;;3.25;1.10;;;13.50;65.90;;;;;;5082673;28;20060;-46
2021/05/23 03:43:56;;;;;;;3.65;1.10;;;13.40;66.40;;;;;;5082624;28;20063;-46
2021/05/23 03:46:22;;;;;;;3.47;1.10;;;13.50;66.30;;;;;;5082602;28;20028;-47
2021/05/23 03:48:47;;;;;;;2.85;1.10;;;13.50;66.70;;;;;;5082142;28;20036;-48
2021/05/23 03:51:13;;;;;;;4.45;1.10;;;13.40;67.00;;;;;;5083834;28;20048;-45
2021/05/23 03:53:38;;;;;;;3.65;0.80;;;13.40;67.10;;;;;;5082245;28;20032;-45
2021/05/23 03:56:04;;;;;;;2.72;1.02;;;13.40;67.10;;;;;;5082195;28;20040;-45
2021/05/23 03:58:30;;;;;;;2.40;0.80;;;13.40;67.30;;;;;;5082472;28;20044;-46
2021/05/23 04:00:55;;;;;;;1.73;0.63;;;13.40;67.20;;;;;;5082161;28;20262;-45
2021/05/23 04:03:24;;;;;;;3.03;0.85;;;13.40;67.70;;;;;;5081879;28;20382;-48
2021/05/23 04:05:50;;;;;;;1.48;0.65;;;13.40;67.00;;;;;;5084309;28;20093;-46
2021/05/23 04:08:15;;;;;;;2.25;0.52;;;13.30;67.20;;;;;;5082482;28;20295;-44
2021/05/23 04:10:41;;;;;;;1.73;0.77;;;13.30;67.30;;;;;;5082235;28;20116;-45
2021/05/23 04:13:09;;;;;;;1.95;0.70;;;13.30;67.40;;;;;;5081988;28;20039;-45
2021/05/23 04:15:35;;;;;;;3.45;0.60;;;13.30;67.30;;;;;;5082001;28;20040;-46
2021/05/23 04:18:00;;;;;;;0.90;0.50;;;13.30;66.90;;;;;;5083882;28;20216;-47
2021/05/23 04:20:26;;;;;;;0.68;0.55;;;13.30;67.00;;;;;;5082487;28;20043;-47
2021/05/23 04:22:52;;;;;;;0.50;0.40;;;13.30;67.20;;;;;;5082091;28;20332;-45
2021/05/23 04:25:18;;;;;;;2.35;0.70;;;13.20;67.00;;;;;;5082130;28;20033;-49
2021/05/23 04:27:45;;;;;;;0.60;0.40;;;13.20;66.90;;;;;;5081951;28;20055;-45
2021/05/23 04:30:11;;;;;;;0.90;0.50;;;13.20;67.20;;;;;;5083760;28;20028;-47
2021/05/23 04:32:37;;;;;;;2.67;0.50;;;13.20;67.40;;;;;;5081032;28;20108;-47
2021/05/23 04:35:03;;;;;;;1.45;0.57;;;13.10;67.10;;;;;;5082155;28;20044;-49
2021/05/23 04:37:29;;;;;;;0.77;0.50;;;13.10;67.20;;;;;;5084375;28;20100;-46
2021/05/23 04:39:54;;;;;;;0.93;0.50;;;13.10;67.30;;;;;;5084481;28;20039;-46
2021/05/23 04:42:20;;;;;;;1.25;0.47;;;12.90;67.50;;;;;;5085532;28;20028;-45
2021/05/23 04:44:45;;;;;;;1.13;0.50;;;12.80;73.00;;;;;;5085869;28;20017;-47
2021/05/23 04:47:11;;;;;;;2.22;0.57;;;12.90;67.90;;;;;;5086011;28;20116;-45
2021/05/23 04:49:39;;;;;;;2.15;0.40;;;12.90;67.90;;;;;;5084709;28;20032;-45
2021/05/23 04:52:07;;;;;;;0.88;0.45;;;12.80;68.00;;;;;;5085874;28;20032;-45
2021/05/23 04:54:32;;;;;;;1.02;0.50;;;12.80;68.00;;;;;;5085270;28;20025;-46
2021/05/23 04:56:58;;;;;;;0.93;0.40;;;12.80;68.20;;;;;;5086864;28;20024;-45
2021/05/23 04:59:23;;;;;;;0.80;0.40;;;12.80;68.00;;;;;;5085920;28;20270;-45
2021/05/23 05:01:49;;;;;;;1.75;0.50;;;12.80;68.30;;;;;;5085243;28;20033;-46
2021/05/23 05:04:14;;;;;;;1.00;0.57;;;12.80;68.10;;;;;;5085204;28;20331;-47
2021/05/23 05:06:40;;;;;;;1.42;0.40;;;12.70;68.30;;;;;;5085206;28;20104;-47
2021/05/23 05:09:05;;;;;;;0.82;0.45;;;12.70;68.10;;;;;;5087199;28;20028;-45
2021/05/23 05:11:31;;;;;;;1.75;0.55;;;12.70;68.10;;;;;;5085541;28;20055;-48
2021/05/23 05:13:56;;;;;;;1.20;0.40;;;12.60;68.20;;;;;;5085499;28;20083;-44
2021/05/23 05:16:22;;;;;;;0.77;0.50;;;12.60;68.40;;;;;;5085016;28;20035;-44
2021/05/23 05:18:47;;;;;;;1.48;0.47;;;12.60;68.20;;;;;;5084950;28;20110;-49
2021/05/23 05:21:13;;;;;;;1.70;0.50;;;12.60;68.50;;;;;;5086441;28;20047;-46
2021/05/23 05:23:38;;;;;;;1.33;0.30;;;12.60;69.00;;;;;;5083594;28;20037;-51
2021/05/23 05:26:04;;;;;;;0.85;0.50;;;12.60;68.80;;;;;;5084633;28;20240;-44
2021/05/23 05:28:30;;;;;;;1.02;0.50;;;12.60;68.20;;;;;;5084634;28;20032;-47
2021/05/23 05:30:56;;;;;;;0.80;0.40;;;12.60;68.40;;;;;;5084689;28;20031;-46
2021/05/23 05:33:21;;;;;;;1.42;0.50;;;12.60;68.30;;;;;;5083838;28;20039;-45
2021/05/23 05:35:47;;;;;;;0.45;0.30;;;12.60;68.70;;;;;;5086175;28;20029;-45
2021/05/23 05:38:13;;;;;;;3.60;0.47;;;12.60;68.70;;;;;;5084941;28;20037;-45
2021/05/23 05:40:39;;;;;;;0.73;0.40;;;12.50;68.60;;;;;;5084378;28;20398;-45
2021/05/23 05:43:05;;;;;;;0.63;0.40;;;12.50;68.60;;;;;;5084341;28;20036;-47
2021/05/23 05:45:30;;;;;;;1.00;0.47;;;12.50;68.60;;;;;;5083578;28;20098;-47
2021/05/23 05:47:56;;;;;;;1.27;0.40;;;12.50;68.60;;;;;;5085169;28;20029;-45
2021/05/23 05:50:21;;;;;;;0.98;0.40;;;12.40;68.20;;;;;;5084751;28;20316;-45
2021/05/23 05:52:47;;;;;;;0.52;0.30;;;12.40;68.30;;;;;;5084493;28;20044;-46
2021/05/23 05:55:13;;;;;;;1.38;0.30;;;12.40;68.40;;;;;;5084260;28;20139;-46
2021/05/23 05:57:39;;;;;;;0.30;0.30;;;12.40;68.10;;;;;;5084214;28;20032;-50
2021/05/23 06:00:05;;;;;;;0.50;0.40;;;12.40;68.00;;;;;;5086062;28;20052;-45
2021/05/23 06:02:31;;;;;;;1.00;0.38;;;12.40;68.00;;;;;;5084090;28;20089;-47
2021/05/23 06:04:56;;;;;;;0.30;0.30;;;12.40;67.90;;;;;;5078955;28;20048;-45
2021/05/23 06:07:22;;;;;;;1.42;0.30;;;12.40;68.10;;;;;;5083949;28;20029;-46
2021/05/23 06:09:47;;;;;;;0.82;0.30;;;12.40;68.00;;;;;;5083815;28;20066;-47
2021/05/23 06:12:13;;;;;;;2.00;0.30;;;12.10;68.50;;;;;;5085746;28;20034;-45
2021/05/23 06:14:39;;;;;;;0.60;0.30;;;12.20;68.60;;;;;;5084228;28;20060;-45
2021/05/23 06:17:04;;;;;;;0.40;0.30;;;12.30;68.70;;;;;;5084001;28;20044;-45
2021/05/23 06:19:30;;;;;;;0.40;0.40;;;12.20;68.10;;;;;;5083827;28;20041;-48
2021/05/23 06:21:55;;;;;;;0.52;0.30;;;12.00;68.70;;;;;;5083534;28;20044;-47
2021/05/23 06:24:21;;;;;;;0.32;0.30;;;12.10;68.80;;;;;;5083445;28;20276;-46
2021/05/23 06:26:47;;;;;;;0.30;0.30;;;12.20;68.60;;;;;;5085150;28;20028;-46
2021/05/23 06:29:12;;;;;;;0.50;0.30;;;12.10;68.70;;;;;;5083696;28;20044;-44
2021/05/23 06:31:38;;;;;;;0.45;0.30;;;12.10;69.10;;;;;;5083401;28;20063;-49
2021/05/23 06:34:03;;;;;;;0.70;0.30;;;12.10;68.70;;;;;;5082376;28;20028;-47
2021/05/23 06:36:29;;;;;;;0.73;0.30;;;12.10;69.00;;;;;;5082945;28;20207;-45
2021/05/23 06:38:54;;;;;;;0.30;0.30;;;12.20;69.00;;;;;;5084909;28;20091;-45
2021/05/23 06:41:20;;;;;;;0.57;0.35;;;12.20;69.30;;;;;;5083802;28;20032;-46
2021/05/23 06:43:45;;;;;;;0.47;0.40;;;12.20;69.40;;;;;;5083338;28;20044;-47
2021/05/23 06:46:11;;;;;;;0.77;0.40;;;12.20;69.60;;;;;;5083046;28;20320;-50
2021/05/23 06:48:37;;;;;;;1.10;0.30;;;12.30;69.70;;;;;;5083007;28;20371;-46
2021/05/23 06:51:02;;;;;;;0.38;0.30;;;12.30;69.40;;;;;;5084657;28;20228;-45
2021/05/23 06:53:28;;;;;;;0.35;0.30;;;12.30;69.40;;;;;;5083333;28;20411;-49
2021/05/23 06:55:53;;;;;;;1.85;0.40;;;12.20;68.70;;;;;;5083204;28;20220;-46
2021/05/23 06:58:19;;;;;;;0.30;0.30;;;12.30;69.50;;;;;;5083057;28;20379;-44
2021/05/23 07:00:44;;;;;;;0.50;0.30;;;12.20;69.20;;;;;;5082281;28;20032;-44
2021/05/23 07:03:11;;;;;;;0.32;0.30;;;12.20;69.50;;;;;;5084374;28;20043;-45
2021/05/23 07:05:37;;;;;;;0.68;0.35;;;12.30;69.60;;;;;;5083410;28;20032;-48
2021/05/23 07:08:06;;;;;;;3.30;0.32;;;12.20;69.70;;;;;;5082869;28;20350;-45
2021/05/23 07:10:32;;;;;;;0.65;0.30;;;12.20;69.90;;;;;;5082871;28;20039;-46
2021/05/23 07:12:58;;;;;;;1.73;0.43;;;12.20;69.70;;;;;;5083052;28;20033;-45
2021/05/23 07:15:23;;;;;;;0.88;0.40;;;12.10;69.80;;;;;;5082905;28;20036;-46
2021/05/23 07:17:52;;;;;;;0.68;0.30;;;12.10;69.80;;;;;;5084345;28;20025;-46
2021/05/23 07:20:17;;;;;;;0.50;0.30;;;12.00;70.00;;;;;;5082927;28;20041;-45
2021/05/23 07:22:43;;;;;;;1.65;0.30;;;12.10;70.10;;;;;;5082826;28;20236;-45
2021/05/23 07:25:09;;;;;;;2.50;0.30;;;12.10;70.30;;;;;;5082967;28;20033;-44
2021/05/23 07:27:35;;;;;;;1.05;0.50;;;12.20;70.30;;;;;;5082781;28;20032;-45
2021/05/23 07:30:00;;;;;;;2.28;0.60;;;12.10;70.70;;;;;;5084446;28;20048;-44
2021/05/23 07:32:26;;;;;;;1.02;0.35;;;12.10;70.60;;;;;;5082618;28;20036;-49
2021/05/23 07:34:51;;;;;;;0.22;0.20;;;12.10;70.70;;;;;;5082886;28;20070;-45
2021/05/23 07:37:17;;;;;;;0.30;0.30;;;12.10;70.50;;;;;;5082790;28;20032;-47
2021/05/23 07:39:44;;;;;;;1.15;0.32;;;12.10;70.50;;;;;;5082496;28;20037;-47
2021/05/23 07:42:10;;;;;;;1.95;0.60;;;12.10;70.60;;;;;;5083892;28;20328;-46
2021/05/23 07:44:35;;;;;;;1.50;0.73;;;12.10;70.70;;;;;;5082354;28;20043;-44
2021/05/23 07:47:01;;;;;;;0.35;0.30;;;12.10;70.60;;;;;;5082307;28;20091;-45
2021/05/23 07:49:26;;;;;;;3.58;0.38;;;12.10;70.80;;;;;;5082387;28;20336;-46
2021/05/23 07:51:52;;;;;;;1.27;0.40;;;12.20;70.80;;;;;;5082198;28;20029;-45
2021/05/23 07:54:17;;;;;;;4.13;0.40;;;12.20;70.90;;;;;;5084160;28;20033;-45
2021/05/23 07:56:44;;;;;;;0.85;0.38;;;12.20;70.60;;;;;;5082577;28;20064;-46
2021/05/23 07:59:10;;;;;;;0.70;0.40;;;12.20;70.90;;;;;;5082211;28;20231;-46
2021/05/23 08:01:35;;;;;;;1.20;0.75;;;12.30;70.80;;;;;;5082078;28;20043;-45
2021/05/23 08:04:01;;;;;;;0.95;0.50;;;12.30;70.80;;;;;;5080852;28;20040;-46
2021/05/23 08:06:27;;;;;;;0.82;0.50;;;12.30;70.60;;;;;;5082020;28;20043;-44
2021/05/23 08:08:52;;;;;;;1.50;0.30;;;12.40;70.90;;;;;;5083763;28;20084;-45
2021/05/23 08:11:18;;;;;;;1.02;0.30;;;12.40;70.90;;;;;;5083005;28;20224;-47
2021/05/23 08:13:43;;;;;;;0.30;0.30;;;12.40;71.00;;;;;;5086028;28;20095;-45
2021/05/23 08:16:10;;;;;;;0.60;0.40;;;12.40;71.10;;;;;;5086024;28;20092;-46
2021/05/23 08:18:38;;;;;;;1.30;0.40;;;12.40;70.70;;;;;;5085035;28;20037;-46
2021/05/23 08:21:04;;;;;;;1.35;0.30;;;12.50;70.80;;;;;;5087544;28;20051;-46
2021/05/23 08:23:29;;;;;;;0.47;0.30;;;12.60;71.00;;;;;;5086196;28;20040;-45
2021/05/23 08:25:55;;;;;;;0.60;0.40;;;12.60;71.00;;;;;;5085823;28;20344;-49
2021/05/23 08:28:21;;;;;;;1.10;0.40;;;12.60;71.10;;;;;;5084947;28;20032;-45
2021/05/23 08:30:47;;;;;;;1.25;0.57;;;12.50;70.90;;;;;;5085311;28;20078;-46
2021/05/23 08:33:12;;;;;;;1.55;0.50;;;12.50;70.80;;;;;;5088057;28;20078;-47
2021/05/23 08:35:39;;;;;;;1.58;0.80;;;12.60;70.80;;;;;;5086010;28;20241;-45
2021/05/23 08:38:06;;;;;;;1.08;0.40;;;12.50;71.10;;;;;;5085543;28;20090;-45
2021/05/23 08:40:31;;;;;;;1.08;0.43;;;12.60;71.10;;;;;;5085708;28;20082;-45
2021/05/23 08:42:57;;;;;;;3.92;0.50;;;12.50;71.30;;;;;;5085858;28;20273;-46
2021/05/23 08:45:22;;;;;;;6.53;1.90;;;12.50;71.10;;;;;;5085453;28;20332;-47
2021/05/23 08:47:49;;;;;;;3.08;1.17;;;12.60;70.70;;;;;;5087340;28;20016;-45
2021/05/23 08:50:18;;;;;;;5.95;0.95;;;12.60;70.70;;;;;;5085902;28;20047;-45
2021/05/23 08:52:44;;;;;;;1.00;0.45;;;12.70;70.60;;;;;;5084657;28;20047;-45
2021/05/23 08:55:10;;;;;;;7.28;2.00;;;12.80;70.50;;;;;;5085104;28;20033;-46
2021/05/23 08:57:36;;;;;;;1.08;0.50;;;12.90;70.40;;;;;;5085308;28;20035;-44
2021/05/23 09:00:03;;;;;;;2.00;0.70;;;12.90;70.60;;;;;;5087107;28;20088;-49
2021/05/23 09:02:29;;;;;;;1.00;0.50;;;13.00;70.70;;;;;;5085321;28;20328;-47
2021/05/23 09:04:55;;;;;;;0.68;0.40;;;13.10;70.40;;;;;;5083984;28;20039;-47
2021/05/23 09:07:21;;;;;;;0.88;0.55;;;13.10;70.40;;;;;;5084896;28;20033;-46
2021/05/23 09:09:47;;;;;;;1.67;0.40;;;13.20;70.40;;;;;;5084111;28;20070;-47
2021/05/23 09:12:14;;;;;;;1.85;0.60;;;13.10;70.70;;;;;;5086909;28;20032;-47
2021/05/23 09:14:50;;;;;;;2.25;0.47;;;13.10;70.40;;;;;;5084039;28;20055;-47
2021/05/23 09:17:27;;;;;;;0.77;0.50;;;13.10;70.40;;;;;;5085054;28;20285;-46
2021/05/23 09:19:54;;;;;;;0.70;0.40;;;13.10;70.20;;;;;;5084822;28;20052;-45
2021/05/23 09:22:23;;;;;;;1.10;0.43;;;13.10;70.60;;;;;;5084642;28;20340;-45
2021/05/23 09:25:01;;;;;;;0.70;0.40;;;13.00;70.50;;;;;;5084226;28;20035;-45
2021/05/23 09:27:29;;;;;;;0.65;0.40;;;13.10;70.20;;;;;;5085219;28;20024;-45
2021/05/23 09:30:19;;;;;;;1.80;0.57;;;13.10;70.60;;;;;;5086656;28;20055;-47
2021/05/23 09:32:46;;;;;;;1.08;0.50;;;13.00;70.30;;;;;;5085428;28;20099;-45
2021/05/23 09:35:11;;;;;;;1.85;0.50;;;12.90;69.40;;;;;;5083773;28;20355;-45
2021/05/23 09:37:37;;;;;;;0.93;0.40;;;12.80;68.00;;;;;;5084881;28;20082;-47
2021/05/23 09:40:21;;;;;;;3.65;0.50;;;12.80;68.20;;;;;;5084617;28;20065;-47
2021/05/23 09:42:48;;;;;;;3.85;0.70;;;12.90;68.10;;;;;;5084870;28;20037;-47
2021/05/23 09:45:14;;;;;;;6.65;0.65;;;13.00;68.10;;;;;;5086375;28;20024;-46
2021/05/23 09:47:58;;;;;;;1.98;0.75;;;13.10;68.20;;;;;;5084268;28;20051;-50
2021/05/23 09:50:40;;;;;;;2.95;1.30;;;13.30;68.70;;;;;;5084527;28;20138;-49
2021/05/23 09:53:35;;;;;;;1.75;0.70;;;13.20;66.80;;;;;;5084119;28;20060;-46
2021/05/23 09:56:06;;;;;;;1.52;0.70;;;13.30;68.60;;;;;;5075744;28;20033;-46
2021/05/23 09:58:36;;;;;;;1.90;0.68;;;13.30;68.30;;;;;;5083006;28;20038;-47
2021/05/23 10:01:03;;;;;;;1.30;0.60;;;13.40;68.10;;;;;;5084377;28;20021;-50
2021/05/23 10:03:30;;;;;;;2.08;0.63;;;13.50;67.80;;;;;;5083042;28;20052;-46
2021/05/23 10:05:56;;;;;;;2.20;0.80;;;13.60;67.70;;;;;;5085888;28;20048;-49
2021/05/23 10:08:22;;;;;;;1.48;0.60;;;13.60;67.20;;;;;;5083745;28;20041;-45
2021/05/23 10:10:48;;;;;;;1.83;0.93;;;13.80;68.10;;;;;;5083802;28;20052;-48
2021/05/23 10:13:14;;;;;;;2.72;0.70;;;13.90;68.70;;;;;;5083703;28;20033;-47
2021/05/23 10:15:40;;;;;;;1.27;0.50;;;14.10;68.70;;;;;;5082949;28;20028;-47
2021/05/23 10:18:07;;;;;;;1.65;0.60;;;14.20;68.90;;;;;;5085763;28;20087;-45
2021/05/23 10:20:33;;;;;;;0.90;0.60;;;14.30;68.70;;;;;;5083883;28;20036;-48
2021/05/23 10:23:00;;;;;;;1.85;0.80;;;14.30;69.10;;;;;;5084070;28;20347;-48
2021/05/23 10:25:25;;;;;;;1.65;0.80;;;14.40;69.10;;;;;;5082414;28;20100;-47
2021/05/23 10:27:51;;;;;;;3.75;0.60;;;14.50;68.50;;;;;;5066244;28;20033;-46
2021/05/23 10:30:17;;;;;;;1.35;0.52;;;14.60;69.00;;;;;;5083967;28;20055;-46
2021/05/23 10:32:43;;;;;;;1.77;0.80;;;14.60;68.70;;;;;;5083475;28;20044;-50
2021/05/23 10:35:13;;;;;;;1.77;0.70;;;14.70;68.00;;;;;;5083632;28;20227;-46
2021/05/23 10:37:39;;;;;;;3.17;0.95;;;14.60;67.40;;;;;;5083018;28;20043;-47
2021/05/23 10:40:21;;;;;;;1.70;0.90;;;14.50;66.50;;;;;;5083430;28;20028;-48
2021/05/23 10:42:53;;;;;;;4.93;0.85;;;14.40;66.10;;;;;;5083886;28;20082;-48
2021/05/23 10:45:23;;;;;;;1.05;0.52;;;14.40;66.60;;;;;;5083666;28;20028;-48
2021/05/23 10:47:48;;;;;;;1.38;0.60;;;14.40;66.50;;;;;;5084815;28;20039;-48
2021/05/23 10:50:14;;;;;;;1.60;0.70;;;14.40;66.10;;;;;;5082544;28;20324;-46
2021/05/23 10:52:40;;;;;;;1.63;0.60;;;14.40;66.30;;;;;;5083415;28;20255;-48
2021/05/23 10:55:10;;;;;;;2.35;1.17;;;14.40;65.80;;;;;;5082933;28;20036;-49
2021/05/23 10:57:47;;;;;;;2.65;1.10;;;14.40;64.90;;;;;;5082938;28;20029;-46
2021/05/23 11:00:23;;;;;;;2.70;0.70;;;14.60;66.00;;;;;;5084550;28;20031;-46
2021/05/23 11:02:52;;;;;;;1.30;0.70;;;14.80;65.70;;;;;;5083650;28;20341;-46
2021/05/23 11:05:25;;;;;;;1.92;0.70;;;14.80;65.60;;;;;;5083143;28;20328;-47
2021/05/23 11:07:54;;;;;;;1.75;0.80;;;14.90;64.10;;;;;;5082754;28;20181;-47
2021/05/23 11:10:22;;;;;;;1.70;0.80;;;15.00;64.00;;;;;;5081922;28;20025;-47
2021/05/23 11:12:48;;;;;;;1.60;0.70;;;15.00;63.30;;;;;;5065290;28;20051;-50
2021/05/23 11:15:14;;;;;;;1.42;0.65;;;15.20;64.70;;;;;;5084472;28;20054;-47
2021/05/23 11:17:39;;;;;;;3.60;0.90;;;15.20;64.00;;;;;;5082648;28;20037;-46
2021/05/23 11:20:16;;;;;;;1.77;0.60;;;15.30;63.90;;;;;;5083008;28;20035;-48
2021/05/23 11:22:42;;;;;;;1.65;0.65;;;15.30;63.40;;;;;;5082540;28;20048;-48
2021/05/23 11:25:08;;;;;;;2.78;0.73;;;15.50;63.80;;;;;;5083037;28;20051;-49
2021/05/23 11:27:34;;;;;;;4.43;0.80;;;15.50;64.90;;;;;;5083513;28;20021;-47
2021/05/23 11:29:59;;;;;;;1.67;0.60;;;15.60;65.00;;;;;;5084439;28;20043;-47
2021/05/23 11:32:25;;;;;;;4.90;0.70;;;15.70;65.30;;;;;;5083120;28;20040;-47
2021/05/23 11:34:50;;;;;;;3.05;0.70;;;15.60;65.30;;;;;;5082924;28;20040;-46
2021/05/23 11:37:16;;;;;;;2.90;0.90;;;15.60;64.80;;;;;;5082287;28;20040;-47
2021/05/23 11:39:42;;;;;;;3.05;0.70;;;15.80;63.70;;;;;;5082370;28;20096;-47
2021/05/23 11:42:09;;;;;;;6.10;1.08;;;15.90;63.30;;;;;;5083999;28;20028;-47
2021/05/23 11:44:41;;;;;;;2.83;0.65;;;15.90;62.60;;;;;;5082946;28;20063;-47
2021/05/23 11:47:07;;;;;;;1.33;0.50;;;16.10;63.60;;;;;;5082252;28;20036;-48
2021/05/23 11:49:33;;;;;;;1.55;0.50;;;16.20;63.30;;;;;;5082616;28;20045;-48
2021/05/23 11:52:04;;;;;;;1.25;0.68;;;16.30;63.60;;;;;;5082409;28;20368;-47
2021/05/23 11:54:29;;;;;;;2.58;0.82;;;16.30;62.40;;;;;;5082180;28;20090;-49
2021/05/23 11:56:55;;;;;;;1.80;0.70;;;16.40;62.20;;;;;;5083855;28;20033;-48
2021/05/23 11:59:20;;;;;;;2.20;0.70;;;16.40;62.20;;;;;;5082536;28;20091;-50
2021/05/23 12:01:47;;;;;;;0.70;0.50;;;16.50;62.40;;;;;;5082451;28;20104;-46
2021/05/23 12:04:14;;;;;;;1.65;0.57;;;16.50;61.90;;;;;;5082540;28;20044;-46
2021/05/23 12:06:50;;;;;;;1.10;0.50;;;16.40;59.50;;;;;;5081167;28;20037;-47
2021/05/23 12:09:22;;;;;;;1.75;0.52;;;16.40;59.90;;;;;;5083758;28;20095;-49
2021/05/23 12:11:52;;;;;;;1.88;0.50;;;16.60;60.70;;;;;;5083252;28;20324;-47
2021/05/23 12:14:22;;;;;;;4.20;0.80;;;16.60;60.00;;;;;;5082745;28;20036;-48
2021/05/23 12:16:48;;;;;;;1.50;0.60;;;16.70;60.40;;;;;;5081196;28;20036;-46
2021/05/23 12:19:14;;;;;;;1.83;0.60;;;16.80;60.40;;;;;;5081918;28;20028;-47
2021/05/23 12:21:39;;;;;;;2.70;1.20;;;16.80;59.60;;;;;;5081958;28;20052;-49
2021/05/23 12:24:05;;;;;;;1.08;0.60;;;16.80;59.40;;;;;;5083535;28;20020;-49
2021/05/23 12:26:31;;;;;;;1.80;0.50;;;17.00;59.20;;;;;;5082116;28;20052;-48
2021/05/23 12:28:56;;;;;;;2.45;0.60;;;17.20;59.50;;;;;;5080857;28;20044;-48
2021/05/23 12:31:26;;;;;;;1.00;0.40;;;17.10;55.20;;;;;;5080386;28;20088;-47
2021/05/23 12:33:54;;;;;;;1.73;0.35;;;17.10;53.90;;;;;;5064028;28;20035;-46
2021/05/23 12:36:21;;;;;;;2.10;0.70;;;17.20;53.50;;;;;;5080503;28;20032;-47
2021/05/23 12:39:13;;;;;;;3.70;1.35;;;17.10;54.00;;;;;;5082533;28;20082;-46
2021/05/23 12:41:40;;;;;;;1.83;0.77;;;17.30;53.40;;;;;;5077757;28;20220;-46
2021/05/23 12:44:23;;;;;;;1.92;0.75;;;17.20;55.00;;;;;;5082147;28;20224;-50
2021/05/23 12:46:48;;;;;;;2.65;0.50;;;17.30;54.90;;;;;;5082266;28;20063;-46